sensor_id;sensor_type;location;lat;lon;timestamp;P1;durP1;ratioP1;P2;durP2;ratioP2
56567;SDS011;42456;49.956;20.004;2023-06-14T00:02:25;13.30;;;6.90;;
56567;SDS011;42456;49.956;20.004;2023-06-14T00:04:52;14.00;;;7.00;;
56567;SDS011;42456;49.956;20.004;2023-06-14T00:07:20;13.80;;;6.50;;
56567;SDS011;42456;49.956;20.004;2023-06-14T00:10:00;14.40;;;7.30;;
56567;SDS011;42456;49.956;20.004;2023-06-14T00:12:26;13.20;;;6.90;;
56567;SDS011;42456;49.956;20.004;2023-06-14T00:14:53;14.10;;;7.20;;
56567;SDS011;42456;49.956;20.004;2023-06-14T00:17:20;14.60;;;7.70;;
56567;SDS011;42456;49.956;20.004;2023-06-14T00:19:48;13.90;;;7.10;;
56567;SDS011;42456;49.956;20.004;2023-06-14T00:22:15;13.10;;;7.30;;
56567;SDS011;42456;49.956;20.004;2023-06-14T00:24:42;13.60;;;6.70;;
56567;SDS011;42456;49.956;20.004;2023-06-14T00:27:09;13.30;;;7.30;;
56567;SDS011;42456;49.956;20.004;2023-06-14T00:29:37;14.60;;;7.20;;
56567;SDS011;42456;49.956;20.004;2023-06-14T00:32:04;12.50;;;6.70;;
56567;SDS011;42456;49.956;20.004;2023-06-14T00:34:31;14.30;;;6.90;;
56567;SDS011;42456;49.956;20.004;2023-06-14T00:36:58;12.20;;;6.70;;
56567;SDS011;42456;49.956;20.004;2023-06-14T00:39:26;11.80;;;6.50;;
56567;SDS011;42456;49.956;20.004;2023-06-14T00:41:53;13.90;;;7.50;;
56567;SDS011;42456;49.956;20.004;2023-06-14T00:44:20;14.10;;;6.90;;
56567;SDS011;42456;49.956;20.004;2023-06-14T00:46:47;12.60;;;6.90;;
56567;SDS011;42456;49.956;20.004;2023-06-14T00:49:15;13.30;;;7.20;;
56567;SDS011;42456;49.956;20.004;2023-06-14T00:51:44;14.20;;;7.50;;
56567;SDS011;42456;49.956;20.004;2023-06-14T00:54:11;14.40;;;7.20;;
56567;SDS011;42456;49.956;20.004;2023-06-14T00:56:38;13.60;;;7.60;;
56567;SDS011;42456;49.956;20.004;2023-06-14T00:59:06;13.40;;;7.30;;
56567;SDS011;42456;49.956;20.004;2023-06-14T01:01:33;14.10;;;7.20;;
56567;SDS011;42456;49.956;20.004;2023-06-14T01:04:00;13.80;;;7.60;;
56567;SDS011;42456;49.956;20.004;2023-06-14T01:06:33;14.90;;;7.60;;
56567;SDS011;42456;49.956;20.004;2023-06-14T01:14:40;14.40;;;7.70;;
56567;SDS011;42456;49.956;20.004;2023-06-14T01:17:08;14.80;;;8.00;;
56567;SDS011;42456;49.956;20.004;2023-06-14T01:19:43;13.70;;;7.20;;
56567;SDS011;42456;49.956;20.004;2023-06-14T01:22:10;12.80;;;7.10;;
56567;SDS011;42456;49.956;20.004;2023-06-14T01:24:37;15.30;;;8.00;;
56567;SDS011;42456;49.956;20.004;2023-06-14T01:27:05;14.50;;;7.90;;
56567;SDS011;42456;49.956;20.004;2023-06-14T01:29:33;13.90;;;7.50;;
56567;SDS011;42456;49.956;20.004;2023-06-14T01:32:02;15.00;;;7.70;;
56567;SDS011;42456;49.956;20.004;2023-06-14T01:34:30;14.30;;;8.00;;
56567;SDS011;42456;49.956;20.004;2023-06-14T01:37:00;14.30;;;8.00;;
56567;SDS011;42456;49.956;20.004;2023-06-14T01:39:29;15.30;;;8.20;;
56567;SDS011;42456;49.956;20.004;2023-06-14T01:41:56;12.60;;;7.40;;
56567;SDS011;42456;49.956;20.004;2023-06-14T01:44:25;13.90;;;7.30;;
56567;SDS011;42456;49.956;20.004;2023-06-14T01:46:54;15.30;;;7.70;;
56567;SDS011;42456;49.956;20.004;2023-06-14T01:49:21;15.80;;;8.00;;
56567;SDS011;42456;49.956;20.004;2023-06-14T01:51:47;14.40;;;8.20;;
56567;SDS011;42456;49.956;20.004;2023-06-14T01:54:14;12.70;;;7.00;;
56567;SDS011;42456;49.956;20.004;2023-06-14T01:56:41;17.00;;;8.20;;
56567;SDS011;42456;49.956;20.004;2023-06-14T01:59:08;17.30;;;8.40;;
56567;SDS011;42456;49.956;20.004;2023-06-14T02:01:34;14.50;;;7.70;;
56567;SDS011;42456;49.956;20.004;2023-06-14T02:04:03;15.80;;;8.30;;
56567;SDS011;42456;49.956;20.004;2023-06-14T02:06:30;15.50;;;8.50;;
56567;SDS011;42456;49.956;20.004;2023-06-14T02:08:56;14.90;;;8.10;;
56567;SDS011;42456;49.956;20.004;2023-06-14T02:11:24;15.20;;;8.50;;
56567;SDS011;42456;49.956;20.004;2023-06-14T02:13:52;16.10;;;8.90;;
56567;SDS011;42456;49.956;20.004;2023-06-14T02:16:19;16.80;;;8.60;;
56567;SDS011;42456;49.956;20.004;2023-06-14T02:18:46;14.40;;;8.20;;
56567;SDS011;42456;49.956;20.004;2023-06-14T02:21:13;16.40;;;8.80;;
56567;SDS011;42456;49.956;20.004;2023-06-14T02:23:41;14.90;;;8.00;;
56567;SDS011;42456;49.956;20.004;2023-06-14T02:26:08;14.30;;;8.10;;
56567;SDS011;42456;49.956;20.004;2023-06-14T02:28:34;14.40;;;8.10;;
56567;SDS011;42456;49.956;20.004;2023-06-14T02:31:02;15.50;;;7.90;;
56567;SDS011;42456;49.956;20.004;2023-06-14T02:33:29;16.60;;;7.80;;
56567;SDS011;42456;49.956;20.004;2023-06-14T02:35:56;14.20;;;7.90;;
56567;SDS011;42456;49.956;20.004;2023-06-14T02:38:23;13.90;;;8.00;;
56567;SDS011;42456;49.956;20.004;2023-06-14T02:40:50;16.00;;;8.30;;
56567;SDS011;42456;49.956;20.004;2023-06-14T02:43:17;22.10;;;9.70;;
56567;SDS011;42456;49.956;20.004;2023-06-14T02:45:44;20.30;;;10.60;;
56567;SDS011;42456;49.956;20.004;2023-06-14T02:48:11;22.60;;;11.60;;
56567;SDS011;42456;49.956;20.004;2023-06-14T02:50:38;21.10;;;10.70;;
56567;SDS011;42456;49.956;20.004;2023-06-14T02:53:05;20.50;;;11.20;;
56567;SDS011;42456;49.956;20.004;2023-06-14T02:55:33;21.30;;;11.00;;
56567;SDS011;42456;49.956;20.004;2023-06-14T02:57:59;22.50;;;11.80;;
56567;SDS011;42456;49.956;20.004;2023-06-14T03:00:26;20.20;;;9.90;;
56567;SDS011;42456;49.956;20.004;2023-06-14T03:05:23;19.70;;;9.70;;
56567;SDS011;42456;49.956;20.004;2023-06-14T03:07:50;23.70;;;12.10;;
56567;SDS011;42456;49.956;20.004;2023-06-14T03:10:17;22.40;;;10.60;;
56567;SDS011;42456;49.956;20.004;2023-06-14T03:12:43;25.30;;;11.80;;
56567;SDS011;42456;49.956;20.004;2023-06-14T03:15:11;20.70;;;10.80;;
56567;SDS011;42456;49.956;20.004;2023-06-14T03:17:39;26.20;;;11.50;;
56567;SDS011;42456;49.956;20.004;2023-06-14T03:20:07;24.50;;;11.50;;
56567;SDS011;42456;49.956;20.004;2023-06-14T03:22:35;22.80;;;11.50;;
56567;SDS011;42456;49.956;20.004;2023-06-14T03:25:01;21.50;;;11.20;;
56567;SDS011;42456;49.956;20.004;2023-06-14T03:27:30;21.80;;;11.40;;
56567;SDS011;42456;49.956;20.004;2023-06-14T03:29:57;24.90;;;11.40;;
56567;SDS011;42456;49.956;20.004;2023-06-14T03:32:24;21.80;;;11.60;;
56567;SDS011;42456;49.956;20.004;2023-06-14T03:34:51;24.90;;;11.50;;
56567;SDS011;42456;49.956;20.004;2023-06-14T03:37:19;23.40;;;11.80;;
56567;SDS011;42456;49.956;20.004;2023-06-14T03:39:45;25.40;;;12.30;;
56567;SDS011;42456;49.956;20.004;2023-06-14T03:42:14;25.10;;;12.40;;
56567;SDS011;42456;49.956;20.004;2023-06-14T03:44:41;26.60;;;12.00;;
56567;SDS011;42456;49.956;20.004;2023-06-14T03:47:07;24.60;;;12.40;;
56567;SDS011;42456;49.956;20.004;2023-06-14T03:49:35;25.30;;;12.50;;
56567;SDS011;42456;49.956;20.004;2023-06-14T03:52:02;25.60;;;11.90;;
56567;SDS011;42456;49.956;20.004;2023-06-14T03:54:30;25.90;;;12.80;;
56567;SDS011;42456;49.956;20.004;2023-06-14T03:57:19;29.60;;;12.20;;
56567;SDS011;42456;49.956;20.004;2023-06-14T03:59:50;28.70;;;12.60;;
56567;SDS011;42456;49.956;20.004;2023-06-14T04:02:17;30.70;;;13.00;;
56567;SDS011;42456;49.956;20.004;2023-06-14T04:04:45;28.60;;;13.00;;
56567;SDS011;42456;49.956;20.004;2023-06-14T04:07:12;28.10;;;13.20;;
56567;SDS011;42456;49.956;20.004;2023-06-14T04:09:40;27.30;;;12.60;;
56567;SDS011;42456;49.956;20.004;2023-06-14T04:12:07;31.20;;;12.60;;
56567;SDS011;42456;49.956;20.004;2023-06-14T04:14:40;28.50;;;13.00;;
56567;SDS011;42456;49.956;20.004;2023-06-14T04:17:07;28.70;;;12.50;;
56567;SDS011;42456;49.956;20.004;2023-06-14T04:19:34;28.80;;;13.00;;
56567;SDS011;42456;49.956;20.004;2023-06-14T04:22:01;29.00;;;13.30;;
56567;SDS011;42456;49.956;20.004;2023-06-14T04:24:28;27.70;;;12.30;;
56567;SDS011;42456;49.956;20.004;2023-06-14T04:26:59;24.10;;;11.90;;
56567;SDS011;42456;49.956;20.004;2023-06-14T04:29:27;28.80;;;12.50;;
56567;SDS011;42456;49.956;20.004;2023-06-14T04:31:56;28.80;;;12.40;;
56567;SDS011;42456;49.956;20.004;2023-06-14T04:34:25;31.00;;;12.60;;
56567;SDS011;42456;49.956;20.004;2023-06-14T04:36:56;29.60;;;12.60;;
56567;SDS011;42456;49.956;20.004;2023-06-14T04:39:25;30.90;;;12.40;;
56567;SDS011;42456;49.956;20.004;2023-06-14T04:41:53;31.10;;;12.30;;
56567;SDS011;42456;49.956;20.004;2023-06-14T04:44:23;29.50;;;13.00;;
56567;SDS011;42456;49.956;20.004;2023-06-14T04:46:56;29.80;;;12.90;;
56567;SDS011;42456;49.956;20.004;2023-06-14T04:49:25;27.90;;;12.20;;
56567;SDS011;42456;49.956;20.004;2023-06-14T04:51:53;28.30;;;11.80;;
56567;SDS011;42456;49.956;20.004;2023-06-14T04:54:28;27.30;;;12.40;;
56567;SDS011;42456;49.956;20.004;2023-06-14T04:56:58;26.60;;;10.50;;
56567;SDS011;42456;49.956;20.004;2023-06-14T04:59:24;25.80;;;12.20;;
56567;SDS011;42456;49.956;20.004;2023-06-14T05:01:51;27.60;;;11.20;;
56567;SDS011;42456;49.956;20.004;2023-06-14T05:04:20;27.40;;;11.90;;
56567;SDS011;42456;49.956;20.004;2023-06-14T05:06:49;25.00;;;11.30;;
56567;SDS011;42456;49.956;20.004;2023-06-14T05:09:16;28.20;;;12.80;;
56567;SDS011;42456;49.956;20.004;2023-06-14T05:11:43;26.40;;;11.40;;
56567;SDS011;42456;49.956;20.004;2023-06-14T05:14:11;25.40;;;11.80;;
56567;SDS011;42456;49.956;20.004;2023-06-14T05:16:38;25.70;;;12.00;;
56567;SDS011;42456;49.956;20.004;2023-06-14T05:19:06;30.20;;;11.90;;
56567;SDS011;42456;49.956;20.004;2023-06-14T05:21:33;27.20;;;11.90;;
56567;SDS011;42456;49.956;20.004;2023-06-14T05:24:06;25.60;;;12.10;;
56567;SDS011;42456;49.956;20.004;2023-06-14T05:26:34;25.00;;;12.20;;
56567;SDS011;42456;49.956;20.004;2023-06-14T05:29:02;22.20;;;10.90;;
56567;SDS011;42456;49.956;20.004;2023-06-14T05:31:29;25.80;;;11.40;;
56567;SDS011;42456;49.956;20.004;2023-06-14T05:33:56;21.50;;;10.80;;
56567;SDS011;42456;49.956;20.004;2023-06-14T05:36:23;23.80;;;10.90;;
56567;SDS011;42456;49.956;20.004;2023-06-14T05:38:50;20.30;;;10.20;;
56567;SDS011;42456;49.956;20.004;2023-06-14T05:41:24;22.20;;;10.10;;
56567;SDS011;42456;49.956;20.004;2023-06-14T05:46:21;22.70;;;10.70;;
56567;SDS011;42456;49.956;20.004;2023-06-14T05:48:51;21.30;;;10.10;;
56567;SDS011;42456;49.956;20.004;2023-06-14T05:51:18;24.80;;;11.90;;
56567;SDS011;42456;49.956;20.004;2023-06-14T05:53:48;24.10;;;12.20;;
56567;SDS011;42456;49.956;20.004;2023-06-14T05:56:16;24.90;;;11.20;;
56567;SDS011;42456;49.956;20.004;2023-06-14T05:58:44;23.50;;;10.90;;
56567;SDS011;42456;49.956;20.004;2023-06-14T06:01:12;27.00;;;11.90;;
56567;SDS011;42456;49.956;20.004;2023-06-14T06:03:39;26.50;;;12.40;;
56567;SDS011;42456;49.956;20.004;2023-06-14T06:06:08;26.20;;;12.20;;
56567;SDS011;42456;49.956;20.004;2023-06-14T06:08:34;30.20;;;13.00;;
56567;SDS011;42456;49.956;20.004;2023-06-14T06:11:01;28.40;;;12.70;;
56567;SDS011;42456;49.956;20.004;2023-06-14T06:13:28;24.60;;;11.70;;
56567;SDS011;42456;49.956;20.004;2023-06-14T06:15:55;25.50;;;11.90;;
56567;SDS011;42456;49.956;20.004;2023-06-14T06:18:23;27.90;;;12.00;;
56567;SDS011;42456;49.956;20.004;2023-06-14T06:20:49;28.30;;;12.70;;
56567;SDS011;42456;49.956;20.004;2023-06-14T06:23:16;27.50;;;12.70;;
56567;SDS011;42456;49.956;20.004;2023-06-14T06:25:43;27.80;;;12.90;;
56567;SDS011;42456;49.956;20.004;2023-06-14T06:28:10;26.10;;;12.50;;
56567;SDS011;42456;49.956;20.004;2023-06-14T06:30:37;29.40;;;13.60;;
56567;SDS011;42456;49.956;20.004;2023-06-14T06:33:05;28.20;;;13.10;;
56567;SDS011;42456;49.956;20.004;2023-06-14T06:35:32;29.10;;;13.70;;
56567;SDS011;42456;49.956;20.004;2023-06-14T06:37:59;28.30;;;12.50;;
56567;SDS011;42456;49.956;20.004;2023-06-14T06:40:27;25.80;;;13.00;;
56567;SDS011;42456;49.956;20.004;2023-06-14T06:42:54;27.00;;;13.60;;
56567;SDS011;42456;49.956;20.004;2023-06-14T06:45:21;28.10;;;13.10;;
56567;SDS011;42456;49.956;20.004;2023-06-14T06:47:51;25.70;;;13.40;;
56567;SDS011;42456;49.956;20.004;2023-06-14T06:50:18;26.40;;;12.60;;
56567;SDS011;42456;49.956;20.004;2023-06-14T06:52:46;23.70;;;12.20;;
56567;SDS011;42456;49.956;20.004;2023-06-14T06:55:13;25.00;;;12.10;;
56567;SDS011;42456;49.956;20.004;2023-06-14T06:57:41;22.90;;;11.70;;
56567;SDS011;42456;49.956;20.004;2023-06-14T07:00:08;25.90;;;11.80;;
56567;SDS011;42456;49.956;20.004;2023-06-14T07:02:36;21.90;;;11.20;;
56567;SDS011;42456;49.956;20.004;2023-06-14T07:05:04;22.70;;;11.50;;
56567;SDS011;42456;49.956;20.004;2023-06-14T07:07:31;24.20;;;11.60;;
56567;SDS011;42456;49.956;20.004;2023-06-14T07:09:58;20.10;;;11.50;;
56567;SDS011;42456;49.956;20.004;2023-06-14T07:12:27;20.10;;;10.90;;
56567;SDS011;42456;49.956;20.004;2023-06-14T07:14:53;25.20;;;12.50;;
56567;SDS011;42456;49.956;20.004;2023-06-14T07:17:20;20.30;;;11.00;;
56567;SDS011;42456;49.956;20.004;2023-06-14T07:19:47;20.70;;;11.00;;
56567;SDS011;42456;49.956;20.004;2023-06-14T07:22:14;22.10;;;11.70;;
56567;SDS011;42456;49.956;20.004;2023-06-14T07:24:41;23.40;;;11.90;;
56567;SDS011;42456;49.956;20.004;2023-06-14T07:27:09;23.10;;;12.60;;
56567;SDS011;42456;49.956;20.004;2023-06-14T07:29:40;23.90;;;11.50;;
56567;SDS011;42456;49.956;20.004;2023-06-14T07:32:07;21.80;;;11.70;;
56567;SDS011;42456;49.956;20.004;2023-06-14T07:34:34;23.80;;;11.60;;
56567;SDS011;42456;49.956;20.004;2023-06-14T07:37:01;22.70;;;11.40;;
56567;SDS011;42456;49.956;20.004;2023-06-14T07:39:29;19.90;;;11.10;;
56567;SDS011;42456;49.956;20.004;2023-06-14T07:41:56;20.80;;;11.00;;
56567;SDS011;42456;49.956;20.004;2023-06-14T07:44:23;18.30;;;10.90;;
56567;SDS011;42456;49.956;20.004;2023-06-14T07:46:50;21.10;;;11.10;;
56567;SDS011;42456;49.956;20.004;2023-06-14T07:49:18;22.10;;;11.90;;
56567;SDS011;42456;49.956;20.004;2023-06-14T07:51:45;19.00;;;10.60;;
56567;SDS011;42456;49.956;20.004;2023-06-14T07:54:13;18.90;;;10.30;;
56567;SDS011;42456;49.956;20.004;2023-06-14T07:56:40;19.80;;;10.90;;
56567;SDS011;42456;49.956;20.004;2023-06-14T07:59:10;17.10;;;9.00;;
56567;SDS011;42456;49.956;20.004;2023-06-14T08:01:37;20.40;;;11.30;;
56567;SDS011;42456;49.956;20.004;2023-06-14T08:04:04;19.50;;;11.00;;
56567;SDS011;42456;49.956;20.004;2023-06-14T08:06:31;19.60;;;10.80;;
56567;SDS011;42456;49.956;20.004;2023-06-14T08:09:00;25.30;;;11.30;;
56567;SDS011;42456;49.956;20.004;2023-06-14T08:11:27;20.70;;;10.80;;
56567;SDS011;42456;49.956;20.004;2023-06-14T08:13:54;18.90;;;10.20;;
56567;SDS011;42456;49.956;20.004;2023-06-14T08:16:21;19.50;;;10.80;;
56567;SDS011;42456;49.956;20.004;2023-06-14T08:18:49;20.40;;;11.30;;
56567;SDS011;42456;49.956;20.004;2023-06-14T08:21:16;20.60;;;11.80;;
56567;SDS011;42456;49.956;20.004;2023-06-14T08:23:44;18.60;;;10.40;;
56567;SDS011;42456;49.956;20.004;2023-06-14T08:26:11;17.30;;;9.80;;
56567;SDS011;42456;49.956;20.004;2023-06-14T08:28:38;19.70;;;9.50;;
56567;SDS011;42456;49.956;20.004;2023-06-14T08:31:05;17.30;;;9.70;;
56567;SDS011;42456;49.956;20.004;2023-06-14T08:33:32;15.40;;;9.10;;
56567;SDS011;42456;49.956;20.004;2023-06-14T08:35:59;17.70;;;9.00;;
56567;SDS011;42456;49.956;20.004;2023-06-14T08:38:27;16.30;;;8.10;;
56567;SDS011;42456;49.956;20.004;2023-06-14T08:40:56;13.50;;;7.00;;
56567;SDS011;42456;49.956;20.004;2023-06-14T08:43:24;13.00;;;7.20;;
56567;SDS011;42456;49.956;20.004;2023-06-14T08:45:53;11.50;;;6.90;;
56567;SDS011;42456;49.956;20.004;2023-06-14T08:48:26;11.80;;;6.90;;
56567;SDS011;42456;49.956;20.004;2023-06-14T08:50:56;11.30;;;6.70;;
56567;SDS011;42456;49.956;20.004;2023-06-14T08:53:29;11.90;;;6.30;;
56567;SDS011;42456;49.956;20.004;2023-06-14T08:56:01;14.00;;;7.10;;
56567;SDS011;42456;49.956;20.004;2023-06-14T08:58:31;14.60;;;7.60;;
56567;SDS011;42456;49.956;20.004;2023-06-14T09:01:01;15.30;;;7.30;;
56567;SDS011;42456;49.956;20.004;2023-06-14T09:03:29;15.80;;;7.10;;
56567;SDS011;42456;49.956;20.004;2023-06-14T09:05:57;14.00;;;7.70;;
56567;SDS011;42456;49.956;20.004;2023-06-14T09:08:28;15.50;;;7.60;;
56567;SDS011;42456;49.956;20.004;2023-06-14T09:10:57;13.90;;;7.30;;
56567;SDS011;42456;49.956;20.004;2023-06-14T09:13:26;11.60;;;7.20;;
56567;SDS011;42456;49.956;20.004;2023-06-14T09:15:57;13.20;;;7.20;;
56567;SDS011;42456;49.956;20.004;2023-06-14T09:18:46;14.10;;;7.30;;
56567;SDS011;42456;49.956;20.004;2023-06-14T09:21:15;13.00;;;7.60;;
56567;SDS011;42456;49.956;20.004;2023-06-14T09:23:47;15.00;;;8.60;;
56567;SDS011;42456;49.956;20.004;2023-06-14T09:26:15;14.10;;;8.30;;
56567;SDS011;42456;49.956;20.004;2023-06-14T09:28:50;14.30;;;8.10;;
56567;SDS011;42456;49.956;20.004;2023-06-14T09:31:17;14.40;;;8.30;;
56567;SDS011;42456;49.956;20.004;2023-06-14T09:33:46;14.60;;;7.70;;
56567;SDS011;42456;49.956;20.004;2023-06-14T09:36:24;13.80;;;7.10;;
56567;SDS011;42456;49.956;20.004;2023-06-14T09:41:42;9.50;;;5.90;;
56567;SDS011;42456;49.956;20.004;2023-06-14T09:44:10;11.20;;;6.70;;
56567;SDS011;42456;49.956;20.004;2023-06-14T09:46:46;15.60;;;8.20;;
56567;SDS011;42456;49.956;20.004;2023-06-14T09:49:14;14.50;;;8.80;;
56567;SDS011;42456;49.956;20.004;2023-06-14T09:51:45;14.40;;;9.10;;
56567;SDS011;42456;49.956;20.004;2023-06-14T09:54:15;14.70;;;9.40;;
56567;SDS011;42456;49.956;20.004;2023-06-14T09:56:45;16.00;;;9.20;;
56567;SDS011;42456;49.956;20.004;2023-06-14T09:59:16;16.40;;;9.90;;
56567;SDS011;42456;49.956;20.004;2023-06-14T10:01:47;16.40;;;7.50;;
56567;SDS011;42456;49.956;20.004;2023-06-14T10:04:16;8.20;;;5.10;;
56567;SDS011;42456;49.956;20.004;2023-06-14T10:06:48;7.80;;;4.60;;
56567;SDS011;42456;49.956;20.004;2023-06-14T10:09:17;9.50;;;6.00;;
56567;SDS011;42456;49.956;20.004;2023-06-14T10:11:45;11.20;;;6.00;;
56567;SDS011;42456;49.956;20.004;2023-06-14T10:14:12;6.70;;;4.00;;
56567;SDS011;42456;49.956;20.004;2023-06-14T10:19:33;7.20;;;4.60;;
56567;SDS011;42456;49.956;20.004;2023-06-14T10:22:19;8.50;;;4.90;;
56567;SDS011;42456;49.956;20.004;2023-06-14T10:24:52;7.20;;;4.60;;
56567;SDS011;42456;49.956;20.004;2023-06-14T10:27:20;7.00;;;4.60;;
56567;SDS011;42456;49.956;20.004;2023-06-14T10:32:20;5.90;;;3.90;;
56567;SDS011;42456;49.956;20.004;2023-06-14T10:37:35;7.00;;;4.50;;
56567;SDS011;42456;49.956;20.004;2023-06-14T10:40:02;7.80;;;4.60;;
56567;SDS011;42456;49.956;20.004;2023-06-14T10:42:32;8.40;;;5.00;;
56567;SDS011;42456;49.956;20.004;2023-06-14T10:45:00;10.40;;;5.70;;
56567;SDS011;42456;49.956;20.004;2023-06-14T10:49:56;9.00;;;4.70;;
56567;SDS011;42456;49.956;20.004;2023-06-14T10:52:32;8.00;;;5.30;;
56567;SDS011;42456;49.956;20.004;2023-06-14T10:55:06;6.80;;;4.80;;
56567;SDS011;42456;49.956;20.004;2023-06-14T10:57:50;11.50;;;5.30;;
56567;SDS011;42456;49.956;20.004;2023-06-14T11:00:26;10.80;;;5.90;;
56567;SDS011;42456;49.956;20.004;2023-06-14T11:05:53;8.80;;;5.20;;
56567;SDS011;42456;49.956;20.004;2023-06-14T11:11:05;8.30;;;5.20;;
56567;SDS011;42456;49.956;20.004;2023-06-14T11:13:34;9.40;;;5.40;;
56567;SDS011;42456;49.956;20.004;2023-06-14T11:16:10;7.30;;;5.30;;
56567;SDS011;42456;49.956;20.004;2023-06-14T11:18:38;9.60;;;5.60;;
56567;SDS011;42456;49.956;20.004;2023-06-14T11:21:06;7.70;;;5.30;;
56567;SDS011;42456;49.956;20.004;2023-06-14T11:23:33;8.90;;;4.80;;
56567;SDS011;42456;49.956;20.004;2023-06-14T11:26:00;7.70;;;4.80;;
56567;SDS011;42456;49.956;20.004;2023-06-14T11:31:08;7.50;;;4.70;;
56567;SDS011;42456;49.956;20.004;2023-06-14T11:33:36;6.90;;;4.50;;
56567;SDS011;42456;49.956;20.004;2023-06-14T11:36:03;6.70;;;4.00;;
56567;SDS011;42456;49.956;20.004;2023-06-14T11:38:36;7.00;;;4.30;;
56567;SDS011;42456;49.956;20.004;2023-06-14T11:41:04;6.20;;;4.40;;
56567;SDS011;42456;49.956;20.004;2023-06-14T11:43:31;5.00;;;3.80;;
56567;SDS011;42456;49.956;20.004;2023-06-14T11:46:00;7.70;;;5.00;;
56567;SDS011;42456;49.956;20.004;2023-06-14T11:48:37;7.40;;;4.80;;
56567;SDS011;42456;49.956;20.004;2023-06-14T11:51:06;7.80;;;4.60;;
56567;SDS011;42456;49.956;20.004;2023-06-14T11:53:33;7.40;;;5.20;;
56567;SDS011;42456;49.956;20.004;2023-06-14T11:56:01;8.40;;;5.60;;
56567;SDS011;42456;49.956;20.004;2023-06-14T11:58:29;7.80;;;5.20;;
56567;SDS011;42456;49.956;20.004;2023-06-14T12:00:56;8.70;;;6.10;;
56567;SDS011;42456;49.956;20.004;2023-06-14T12:03:25;7.00;;;4.70;;
56567;SDS011;42456;49.956;20.004;2023-06-14T12:06:02;8.50;;;5.20;;
56567;SDS011;42456;49.956;20.004;2023-06-14T12:08:36;7.80;;;4.90;;
56567;SDS011;42456;49.956;20.004;2023-06-14T12:11:10;6.70;;;5.20;;
56567;SDS011;42456;49.956;20.004;2023-06-14T12:13:40;8.00;;;5.50;;
56567;SDS011;42456;49.956;20.004;2023-06-14T12:16:09;8.90;;;6.10;;
56567;SDS011;42456;49.956;20.004;2023-06-14T12:18:37;9.90;;;6.00;;
56567;SDS011;42456;49.956;20.004;2023-06-14T12:23:44;6.70;;;5.40;;
56567;SDS011;42456;49.956;20.004;2023-06-14T12:26:16;6.20;;;4.60;;
56567;SDS011;42456;49.956;20.004;2023-06-14T12:28:44;6.60;;;4.90;;
56567;SDS011;42456;49.956;20.004;2023-06-14T12:31:13;6.60;;;5.10;;
56567;SDS011;42456;49.956;20.004;2023-06-14T12:33:42;8.40;;;5.30;;
56567;SDS011;42456;49.956;20.004;2023-06-14T12:36:10;6.30;;;4.20;;
56567;SDS011;42456;49.956;20.004;2023-06-14T12:38:37;6.90;;;5.00;;
56567;SDS011;42456;49.956;20.004;2023-06-14T12:41:04;7.40;;;5.00;;
56567;SDS011;42456;49.956;20.004;2023-06-14T12:43:32;8.60;;;5.30;;
56567;SDS011;42456;49.956;20.004;2023-06-14T12:46:00;7.30;;;5.00;;
56567;SDS011;42456;49.956;20.004;2023-06-14T12:48:27;7.00;;;4.90;;
56567;SDS011;42456;49.956;20.004;2023-06-14T12:50:57;8.80;;;5.20;;
56567;SDS011;42456;49.956;20.004;2023-06-14T12:53:24;8.90;;;5.80;;
56567;SDS011;42456;49.956;20.004;2023-06-14T12:55:51;10.20;;;5.80;;
56567;SDS011;42456;49.956;20.004;2023-06-14T12:58:18;9.90;;;6.80;;
56567;SDS011;42456;49.956;20.004;2023-06-14T13:00:46;9.00;;;5.70;;
56567;SDS011;42456;49.956;20.004;2023-06-14T13:03:14;8.40;;;6.00;;
56567;SDS011;42456;49.956;20.004;2023-06-14T13:05:42;10.70;;;6.30;;
56567;SDS011;42456;49.956;20.004;2023-06-14T13:08:09;8.80;;;5.70;;
56567;SDS011;42456;49.956;20.004;2023-06-14T13:10:37;8.80;;;5.70;;
56567;SDS011;42456;49.956;20.004;2023-06-14T13:13:04;9.00;;;5.80;;
56567;SDS011;42456;49.956;20.004;2023-06-14T13:15:31;7.60;;;5.40;;
56567;SDS011;42456;49.956;20.004;2023-06-14T13:17:58;8.20;;;5.10;;
56567;SDS011;42456;49.956;20.004;2023-06-14T13:20:25;9.00;;;5.40;;
56567;SDS011;42456;49.956;20.004;2023-06-14T13:22:52;8.70;;;5.20;;
56567;SDS011;42456;49.956;20.004;2023-06-14T13:25:19;9.50;;;5.20;;
56567;SDS011;42456;49.956;20.004;2023-06-14T13:27:47;6.60;;;4.90;;
56567;SDS011;42456;49.956;20.004;2023-06-14T13:30:14;7.80;;;4.50;;
56567;SDS011;42456;49.956;20.004;2023-06-14T13:32:42;6.20;;;4.10;;
56567;SDS011;42456;49.956;20.004;2023-06-14T13:35:09;8.10;;;4.60;;
56567;SDS011;42456;49.956;20.004;2023-06-14T13:37:37;8.60;;;4.80;;
56567;SDS011;42456;49.956;20.004;2023-06-14T13:40:03;5.70;;;4.10;;
56567;SDS011;42456;49.956;20.004;2023-06-14T13:42:32;5.90;;;4.40;;
56567;SDS011;42456;49.956;20.004;2023-06-14T13:44:59;4.50;;;3.50;;
56567;SDS011;42456;49.956;20.004;2023-06-14T13:47:26;5.40;;;3.70;;
56567;SDS011;42456;49.956;20.004;2023-06-14T13:49:53;5.10;;;3.90;;
56567;SDS011;42456;49.956;20.004;2023-06-14T13:52:21;4.80;;;3.50;;
56567;SDS011;42456;49.956;20.004;2023-06-14T13:54:48;6.00;;;3.70;;
56567;SDS011;42456;49.956;20.004;2023-06-14T13:57:15;5.30;;;3.60;;
56567;SDS011;42456;49.956;20.004;2023-06-14T13:59:43;6.00;;;4.20;;
56567;SDS011;42456;49.956;20.004;2023-06-14T14:02:14;8.50;;;5.50;;
56567;SDS011;42456;49.956;20.004;2023-06-14T14:04:42;8.10;;;5.10;;
56567;SDS011;42456;49.956;20.004;2023-06-14T14:07:09;9.70;;;4.40;;
56567;SDS011;42456;49.956;20.004;2023-06-14T14:09:36;6.60;;;4.30;;
56567;SDS011;42456;49.956;20.004;2023-06-14T14:12:04;5.90;;;4.00;;
56567;SDS011;42456;49.956;20.004;2023-06-14T14:17:01;5.40;;;4.30;;
56567;SDS011;42456;49.956;20.004;2023-06-14T14:19:28;6.80;;;4.00;;
56567;SDS011;42456;49.956;20.004;2023-06-14T14:21:55;6.80;;;4.00;;
56567;SDS011;42456;49.956;20.004;2023-06-14T14:24:22;7.20;;;3.70;;
56567;SDS011;42456;49.956;20.004;2023-06-14T14:26:50;7.50;;;3.90;;
56567;SDS011;42456;49.956;20.004;2023-06-14T14:29:20;6.50;;;3.80;;
56567;SDS011;42456;49.956;20.004;2023-06-14T14:31:49;6.70;;;4.20;;
56567;SDS011;42456;49.956;20.004;2023-06-14T14:34:19;6.00;;;4.30;;
56567;SDS011;42456;49.956;20.004;2023-06-14T14:36:46;5.30;;;3.70;;
56567;SDS011;42456;49.956;20.004;2023-06-14T14:39:14;5.00;;;3.60;;
56567;SDS011;42456;49.956;20.004;2023-06-14T14:41:41;7.30;;;3.90;;
56567;SDS011;42456;49.956;20.004;2023-06-14T14:44:08;9.90;;;4.30;;
56567;SDS011;42456;49.956;20.004;2023-06-14T14:46:35;6.00;;;4.20;;
56567;SDS011;42456;49.956;20.004;2023-06-14T14:49:02;8.40;;;4.30;;
56567;SDS011;42456;49.956;20.004;2023-06-14T14:51:30;6.80;;;4.00;;
56567;SDS011;42456;49.956;20.004;2023-06-14T14:53:57;6.40;;;4.00;;
56567;SDS011;42456;49.956;20.004;2023-06-14T14:56:24;6.90;;;4.20;;
56567;SDS011;42456;49.956;20.004;2023-06-14T14:58:52;6.50;;;3.90;;
56567;SDS011;42456;49.956;20.004;2023-06-14T15:01:19;6.20;;;3.80;;
56567;SDS011;42456;49.956;20.004;2023-06-14T15:03:46;7.20;;;3.80;;
56567;SDS011;42456;49.956;20.004;2023-06-14T15:06:16;6.80;;;4.00;;